sensor_id;sensor_type;location;lat;lon;timestamp;temperature;humidity
7307;DHT22;3694;48.732;9.248;2022-10-23T00:00:20;10.00;99.90
7307;DHT22;3694;48.732;9.248;2022-10-23T00:02:51;10.00;99.90
7307;DHT22;3694;48.732;9.248;2022-10-23T00:05:17;10.00;99.90
7307;DHT22;3694;48.732;9.248;2022-10-23T00:07:43;10.10;99.90
7307;DHT22;3694;48.732;9.248;2022-10-23T00:10:09;10.20;99.90
7307;DHT22;3694;48.732;9.248;2022-10-23T00:12:35;10.10;99.90
7307;DHT22;3694;48.732;9.248;2022-10-23T00:15:00;10.10;99.90
7307;DHT22;3694;48.732;9.248;2022-10-23T00:17:26;10.10;99.90
7307;DHT22;3694;48.732;9.248;2022-10-23T00:19:51;10.20;99.90
7307;DHT22;3694;48.732;9.248;2022-10-23T00:22:17;10.20;99.90
7307;DHT22;3694;48.732;9.248;2022-10-23T00:24:42;10.20;99.90
7307;DHT22;3694;48.732;9.248;2022-10-23T00:27:08;10.10;99.90
7307;DHT22;3694;48.732;9.248;2022-10-23T00:29:33;10.20;99.90
7307;DHT22;3694;48.732;9.248;2022-10-23T00:31:59;10.20;99.90
7307;DHT22;3694;48.732;9.248;2022-10-23T00:34:24;10.30;99.90
7307;DHT22;3694;48.732;9.248;2022-10-23T00:36:50;10.20;99.90
7307;DHT22;3694;48.732;9.248;2022-10-23T00:39:15;10.30;99.90
7307;DHT22;3694;48.732;9.248;2022-10-23T00:41:41;10.20;99.90
7307;DHT22;3694;48.732;9.248;2022-10-23T00:46:57;10.30;99.90
7307;DHT22;3694;48.732;9.248;2022-10-23T00:49:23;10.10;99.90
7307;DHT22;3694;48.732;9.248;2022-10-23T00:51:52;10.00;99.90
7307;DHT22;3694;48.732;9.248;2022-10-23T00:54:23;10.00;99.90
7307;DHT22;3694;48.732;9.248;2022-10-23T00:56:51;9.90;99.90
7307;DHT22;3694;48.732;9.248;2022-10-23T00:59:17;9.90;99.90
7307;DHT22;3694;48.732;9.248;2022-10-23T01:01:43;9.90;99.90
7307;DHT22;3694;48.732;9.248;2022-10-23T01:04:09;9.90;99.90
7307;DHT22;3694;48.732;9.248;2022-10-23T01:06:39;9.70;99.90
7307;DHT22;3694;48.732;9.248;2022-10-23T01:09:25;9.70;99.90
7307;DHT22;3694;48.732;9.248;2022-10-23T01:15:02;9.70;99.90
7307;DHT22;3694;48.732;9.248;2022-10-23T01:17:40;9.60;99.90
7307;DHT22;3694;48.732;9.248;2022-10-23T01:20:21;9.60;99.90
7307;DHT22;3694;48.732;9.248;2022-10-23T01:23:21;9.70;99.90
7307;DHT22;3694;48.732;9.248;2022-10-23T01:26:14;9.70;99.90
7307;DHT22;3694;48.732;9.248;2022-10-23T01:28:51;9.80;99.90
7307;DHT22;3694;48.732;9.248;2022-10-23T01:31:26;9.70;99.90
7307;DHT22;3694;48.732;9.248;2022-10-23T01:33:59;9.60;99.90
7307;DHT22;3694;48.732;9.248;2022-10-23T01:36:27;9.70;99.90
7307;DHT22;3694;48.732;9.248;2022-10-23T01:39:00;9.60;99.90
7307;DHT22;3694;48.732;9.248;2022-10-23T01:41:42;9.70;99.90
7307;DHT22;3694;48.732;9.248;2022-10-23T01:44:33;9.80;99.90
7307;DHT22;3694;48.732;9.248;2022-10-23T01:47:01;9.80;99.90
7307;DHT22;3694;48.732;9.248;2022-10-23T01:49:29;9.80;99.90
7307;DHT22;3694;48.732;9.248;2022-10-23T01:51:59;9.90;99.90
7307;DHT22;3694;48.732;9.248;2022-10-23T01:54:28;9.90;99.90
7307;DHT22;3694;48.732;9.248;2022-10-23T01:56:56;10.00;99.90
7307;DHT22;3694;48.732;9.248;2022-10-23T01:59:27;10.00;99.90
7307;DHT22;3694;48.732;9.248;2022-10-23T02:01:55;10.10;99.90
7307;DHT22;3694;48.732;9.248;2022-10-23T02:04:30;10.00;99.90
7307;DHT22;3694;48.732;9.248;2022-10-23T02:06:57;10.00;99.90
7307;DHT22;3694;48.732;9.248;2022-10-23T02:09:23;9.90;99.90
7307;DHT22;3694;48.732;9.248;2022-10-23T02:14:45;10.00;99.90
7307;DHT22;3694;48.732;9.248;2022-10-23T02:18:07;10.00;99.90
7307;DHT22;3694;48.732;9.248;2022-10-23T02:20:22;10.00;99.90
7307;DHT22;3694;48.732;9.248;2022-10-23T02:25:38;9.90;99.90
7307;DHT22;3694;48.732;9.248;2022-10-23T02:28:09;9.80;99.90
7307;DHT22;3694;48.732;9.248;2022-10-23T02:30:41;9.80;99.90
7307;DHT22;3694;48.732;9.248;2022-10-23T02:33:11;9.70;99.90
7307;DHT22;3694;48.732;9.248;2022-10-23T02:35:37;9.80;99.90
7307;DHT22;3694;48.732;9.248;2022-10-23T02:38:03;9.80;99.90
7307;DHT22;3694;48.732;9.248;2022-10-23T02:40:34;9.80;99.90
7307;DHT22;3694;48.732;9.248;2022-10-23T02:43:13;10.00;99.90
7307;DHT22;3694;48.732;9.248;2022-10-23T02:46:04;10.00;99.90
7307;DHT22;3694;48.732;9.248;2022-10-23T02:48:41;10.00;99.90
7307;DHT22;3694;48.732;9.248;2022-10-23T02:51:17;10.10;99.90
7307;DHT22;3694;48.732;9.248;2022-10-23T02:54:07;10.10;99.90
7307;DHT22;3694;48.732;9.248;2022-10-23T02:56:49;10.10;99.90
7307;DHT22;3694;48.732;9.248;2022-10-23T02:59:38;10.20;99.90
7307;DHT22;3694;48.732;9.248;2022-10-23T03:02:19;10.20;99.90
7307;DHT22;3694;48.732;9.248;2022-10-23T03:04:47;10.20;99.90
7307;DHT22;3694;48.732;9.248;2022-10-23T03:07:13;10.30;99.90
7307;DHT22;3694;48.732;9.248;2022-10-23T03:09:39;10.30;99.90
7307;DHT22;3694;48.732;9.248;2022-10-23T03:12:04;10.30;99.90
7307;DHT22;3694;48.732;9.248;2022-10-23T03:14:30;10.30;99.90
7307;DHT22;3694;48.732;9.248;2022-10-23T03:16:56;10.20;99.90
7307;DHT22;3694;48.732;9.248;2022-10-23T03:19:21;10.30;99.90
7307;DHT22;3694;48.732;9.248;2022-10-23T03:21:47;10.20;99.90
7307;DHT22;3694;48.732;9.248;2022-10-23T03:24:12;10.10;99.90
7307;DHT22;3694;48.732;9.248;2022-10-23T03:26:38;10.10;99.90
7307;DHT22;3694;48.732;9.248;2022-10-23T03:29:03;10.00;99.90
7307;DHT22;3694;48.732;9.248;2022-10-23T03:31:29;10.00;99.90
7307;DHT22;3694;48.732;9.248;2022-10-23T03:33:54;10.00;99.90
7307;DHT22;3694;48.732;9.248;2022-10-23T03:36:20;10.00;99.90
7307;DHT22;3694;48.732;9.248;2022-10-23T03:38:45;10.00;99.90
7307;DHT22;3694;48.732;9.248;2022-10-23T03:41:11;10.10;99.90
7307;DHT22;3694;48.732;9.248;2022-10-23T03:43:36;10.00;99.90
7307;DHT22;3694;48.732;9.248;2022-10-23T03:46:02;10.10;99.90
7307;DHT22;3694;48.732;9.248;2022-10-23T03:48:33;10.20;99.90
7307;DHT22;3694;48.732;9.248;2022-10-23T03:51:02;10.30;99.90
7307;DHT22;3694;48.732;9.248;2022-10-23T03:53:28;10.40;99.90
7307;DHT22;3694;48.732;9.248;2022-10-23T03:55:53;10.40;99.90
7307;DHT22;3694;48.732;9.248;2022-10-23T03:58:19;10.40;99.90
7307;DHT22;3694;48.732;9.248;2022-10-23T04:00:44;10.40;99.90
7307;DHT22;3694;48.732;9.248;2022-10-23T04:03:10;10.40;99.90
7307;DHT22;3694;48.732;9.248;2022-10-23T04:05:35;10.40;99.90
7307;DHT22;3694;48.732;9.248;2022-10-23T04:08:02;10.40;99.90
7307;DHT22;3694;48.732;9.248;2022-10-23T04:10:27;10.40;99.90
7307;DHT22;3694;48.732;9.248;2022-10-23T04:12:53;10.40;99.90
7307;DHT22;3694;48.732;9.248;2022-10-23T04:15:18;10.30;99.90
7307;DHT22;3694;48.732;9.248;2022-10-23T04:17:44;10.20;99.90
7307;DHT22;3694;48.732;9.248;2022-10-23T04:20:09;10.10;99.90
7307;DHT22;3694;48.732;9.248;2022-10-23T04:22:35;10.10;99.90
7307;DHT22;3694;48.732;9.248;2022-10-23T04:25:00;10.00;99.90
7307;DHT22;3694;48.732;9.248;2022-10-23T04:27:26;10.00;99.90
7307;DHT22;3694;48.732;9.248;2022-10-23T04:29:51;10.10;99.90
7307;DHT22;3694;48.732;9.248;2022-10-23T04:32:17;10.10;99.90
7307;DHT22;3694;48.732;9.248;2022-10-23T04:34:42;10.10;99.90
7307;DHT22;3694;48.732;9.248;2022-10-23T04:37:08;10.20;99.90
7307;DHT22;3694;48.732;9.248;2022-10-23T04:39:33;10.20;99.90
7307;DHT22;3694;48.732;9.248;2022-10-23T04:41:59;10.20;99.90
7307;DHT22;3694;48.732;9.248;2022-10-23T04:44:24;10.20;99.90
7307;DHT22;3694;48.732;9.248;2022-10-23T04:46:50;10.30;99.90
7307;DHT22;3694;48.732;9.248;2022-10-23T04:49:15;10.30;99.90
7307;DHT22;3694;48.732;9.248;2022-10-23T04:51:41;10.30;99.90
7307;DHT22;3694;48.732;9.248;2022-10-23T04:54:07;10.30;99.90
7307;DHT22;3694;48.732;9.248;2022-10-23T04:56:33;10.40;99.90
7307;DHT22;3694;48.732;9.248;2022-10-23T04:58:59;10.30;99.90
7307;DHT22;3694;48.732;9.248;2022-10-23T05:01:25;10.30;99.90
7307;DHT22;3694;48.732;9.248;2022-10-23T05:03:51;10.30;99.90
7307;DHT22;3694;48.732;9.248;2022-10-23T05:06:18;10.40;99.90
7307;DHT22;3694;48.732;9.248;2022-10-23T05:08:44;10.40;99.90
7307;DHT22;3694;48.732;9.248;2022-10-23T05:11:10;10.40;99.90
7307;DHT22;3694;48.732;9.248;2022-10-23T05:13:35;10.40;99.90
7307;DHT22;3694;48.732;9.248;2022-10-23T05:16:01;10.40;99.90
7307;DHT22;3694;48.732;9.248;2022-10-23T05:19:06;10.60;99.90
7307;DHT22;3694;48.732;9.248;2022-10-23T05:21:27;10.40;99.90
7307;DHT22;3694;48.732;9.248;2022-10-23T05:23:54;10.40;99.90
7307;DHT22;3694;48.732;9.248;2022-10-23T05:26:19;10.30;99.90
7307;DHT22;3694;48.732;9.248;2022-10-23T05:28:46;10.30;99.90
7307;DHT22;3694;48.732;9.248;2022-10-23T05:31:12;10.30;99.90
7307;DHT22;3694;48.732;9.248;2022-10-23T05:33:38;10.30;99.90
7307;DHT22;3694;48.732;9.248;2022-10-23T05:36:06;10.40;99.90
7307;DHT22;3694;48.732;9.248;2022-10-23T05:38:32;10.40;99.90
7307;DHT22;3694;48.732;9.248;2022-10-23T05:40:59;10.30;99.90
7307;DHT22;3694;48.732;9.248;2022-10-23T05:43:24;10.50;99.90
7307;DHT22;3694;48.732;9.248;2022-10-23T05:45:52;10.60;99.90
7307;DHT22;3694;48.732;9.248;2022-10-23T05:48:17;10.80;99.90
7307;DHT22;3694;48.732;9.248;2022-10-23T05:50:43;10.60;99.90
7307;DHT22;3694;48.732;9.248;2022-10-23T05:53:09;10.60;99.90
7307;DHT22;3694;48.732;9.248;2022-10-23T05:55:35;10.60;99.90
7307;DHT22;3694;48.732;9.248;2022-10-23T05:58:01;10.60;99.90
7307;DHT22;3694;48.732;9.248;2022-10-23T06:00:27;10.60;99.90
7307;DHT22;3694;48.732;9.248;2022-10-23T06:02:53;10.50;99.90
7307;DHT22;3694;48.732;9.248;2022-10-23T06:05:18;10.50;99.90
7307;DHT22;3694;48.732;9.248;2022-10-23T06:07:44;10.50;99.90
7307;DHT22;3694;48.732;9.248;2022-10-23T06:10:09;10.50;99.90
7307;DHT22;3694;48.732;9.248;2022-10-23T06:12:35;10.50;99.90
7307;DHT22;3694;48.732;9.248;2022-10-23T06:15:01;10.50;99.90
7307;DHT22;3694;48.732;9.248;2022-10-23T06:17:27;10.60;99.90
7307;DHT22;3694;48.732;9.248;2022-10-23T06:19:53;10.70;99.90
7307;DHT22;3694;48.732;9.248;2022-10-23T06:22:25;10.70;99.90
7307;DHT22;3694;48.732;9.248;2022-10-23T06:24:51;10.70;99.90
7307;DHT22;3694;48.732;9.248;2022-10-23T06:27:17;10.70;99.90
7307;DHT22;3694;48.732;9.248;2022-10-23T06:29:42;10.70;99.90
7307;DHT22;3694;48.732;9.248;2022-10-23T06:32:08;10.80;99.90
7307;DHT22;3694;48.732;9.248;2022-10-23T06:34:34;10.70;99.90
7307;DHT22;3694;48.732;9.248;2022-10-23T06:36:59;10.80;99.90
7307;DHT22;3694;48.732;9.248;2022-10-23T06:39:25;10.80;99.90
7307;DHT22;3694;48.732;9.248;2022-10-23T06:41:50;10.90;99.90
7307;DHT22;3694;48.732;9.248;2022-10-23T06:44:16;11.20;99.90
7307;DHT22;3694;48.732;9.248;2022-10-23T06:46:42;11.10;99.90
7307;DHT22;3694;48.732;9.248;2022-10-23T06:49:14;11.10;99.90
7307;DHT22;3694;48.732;9.248;2022-10-23T06:51:40;11.20;99.90
7307;DHT22;3694;48.732;9.248;2022-10-23T06:54:06;11.20;99.90
7307;DHT22;3694;48.732;9.248;2022-10-23T06:56:32;11.30;99.90
7307;DHT22;3694;48.732;9.248;2022-10-23T06:58:59;11.40;99.90
7307;DHT22;3694;48.732;9.248;2022-10-23T07:01:25;11.50;99.90
7307;DHT22;3694;48.732;9.248;2022-10-23T07:03:50;11.80;99.90
7307;DHT22;3694;48.732;9.248;2022-10-23T07:06:16;11.90;99.90
7307;DHT22;3694;48.732;9.248;2022-10-23T07:08:41;12.10;99.90
7307;DHT22;3694;48.732;9.248;2022-10-23T07:11:08;12.30;99.90
7307;DHT22;3694;48.732;9.248;2022-10-23T07:13:35;12.40;99.90
7307;DHT22;3694;48.732;9.248;2022-10-23T07:16:30;12.30;99.90
7307;DHT22;3694;48.732;9.248;2022-10-23T07:18:58;12.50;99.90
7307;DHT22;3694;48.732;9.248;2022-10-23T07:21:25;12.70;99.90
7307;DHT22;3694;48.732;9.248;2022-10-23T07:23:51;12.90;99.90
7307;DHT22;3694;48.732;9.248;2022-10-23T07:26:16;13.00;99.90
7307;DHT22;3694;48.732;9.248;2022-10-23T07:28:43;13.10;99.90
7307;DHT22;3694;48.732;9.248;2022-10-23T07:31:10;13.20;99.90
7307;DHT22;3694;48.732;9.248;2022-10-23T07:33:36;13.20;99.90
7307;DHT22;3694;48.732;9.248;2022-10-23T07:36:08;13.20;99.90
7307;DHT22;3694;48.732;9.248;2022-10-23T07:38:34;13.20;99.90
7307;DHT22;3694;48.732;9.248;2022-10-23T07:41:00;13.20;99.90
7307;DHT22;3694;48.732;9.248;2022-10-23T07:43:26;13.30;99.90
7307;DHT22;3694;48.732;9.248;2022-10-23T07:45:52;13.30;99.90
7307;DHT22;3694;48.732;9.248;2022-10-23T07:48:18;13.30;99.90
7307;DHT22;3694;48.732;9.248;2022-10-23T07:50:45;13.40;99.90
7307;DHT22;3694;48.732;9.248;2022-10-23T07:53:22;13.30;99.90
7307;DHT22;3694;48.732;9.248;2022-10-23T07:55:56;13.50;99.90
7307;DHT22;3694;48.732;9.248;2022-10-23T07:58:22;13.70;99.90
7307;DHT22;3694;48.732;9.248;2022-10-23T08:00:53;13.80;99.90
7307;DHT22;3694;48.732;9.248;2022-10-23T08:03:20;13.70;99.90
7307;DHT22;3694;48.732;9.248;2022-10-23T08:05:46;13.90;99.90
7307;DHT22;3694;48.732;9.248;2022-10-23T08:08:11;14.00;99.90
7307;DHT22;3694;48.732;9.248;2022-10-23T08:10:37;14.00;99.90
7307;DHT22;3694;48.732;9.248;2022-10-23T08:13:02;14.10;99.90
7307;DHT22;3694;48.732;9.248;2022-10-23T08:15:28;14.20;99.90
7307;DHT22;3694;48.732;9.248;2022-10-23T08:17:53;14.30;99.90
7307;DHT22;3694;48.732;9.248;2022-10-23T08:20:19;14.30;99.90
7307;DHT22;3694;48.732;9.248;2022-10-23T08:22:44;14.40;99.90
7307;DHT22;3694;48.732;9.248;2022-10-23T08:25:10;14.60;99.90
7307;DHT22;3694;48.732;9.248;2022-10-23T08:27:36;14.70;99.90
7307;DHT22;3694;48.732;9.248;2022-10-23T08:30:02;15.00;99.90
7307;DHT22;3694;48.732;9.248;2022-10-23T08:32:29;15.10;99.90
7307;DHT22;3694;48.732;9.248;2022-10-23T08:34:55;15.40;99.90
7307;DHT22;3694;48.732;9.248;2022-10-23T08:37:20;15.60;99.90
7307;DHT22;3694;48.732;9.248;2022-10-23T08:39:46;15.70;99.90
7307;DHT22;3694;48.732;9.248;2022-10-23T08:42:20;15.80;99.90
7307;DHT22;3694;48.732;9.248;2022-10-23T08:44:56;15.80;99.90
7307;DHT22;3694;48.732;9.248;2022-10-23T08:47:45;15.70;99.90
7307;DHT22;3694;48.732;9.248;2022-10-23T08:50:19;15.80;99.90
7307;DHT22;3694;48.732;9.248;2022-10-23T08:53:04;15.60;99.90
7307;DHT22;3694;48.732;9.248;2022-10-23T08:55:42;15.60;99.90
7307;DHT22;3694;48.732;9.248;2022-10-23T09:00:41;15.80;99.90
7307;DHT22;3694;48.732;9.248;2022-10-23T09:03:09;15.60;99.90
7307;DHT22;3694;48.732;9.248;2022-10-23T09:13:50;16.00;99.90
7307;DHT22;3694;48.732;9.248;2022-10-23T09:19:35;16.30;99.90
7307;DHT22;3694;48.732;9.248;2022-10-23T09:22:01;16.20;99.90
7307;DHT22;3694;48.732;9.248;2022-10-23T09:24:27;16.30;99.90
7307;DHT22;3694;48.732;9.248;2022-10-23T09:26:56;16.40;99.90
7307;DHT22;3694;48.732;9.248;2022-10-23T09:29:27;16.50;99.90
7307;DHT22;3694;48.732;9.248;2022-10-23T09:31:56;16.70;99.90
7307;DHT22;3694;48.732;9.248;2022-10-23T09:34:25;16.70;99.90
7307;DHT22;3694;48.732;9.248;2022-10-23T09:36:57;16.70;99.90
7307;DHT22;3694;48.732;9.248;2022-10-23T09:39:28;16.70;99.90
7307;DHT22;3694;48.732;9.248;2022-10-23T09:41:54;16.70;99.90
7307;DHT22;3694;48.732;9.248;2022-10-23T09:44:22;16.90;99.90
7307;DHT22;3694;48.732;9.248;2022-10-23T09:46:49;17.00;99.90
7307;DHT22;3694;48.732;9.248;2022-10-23T09:49:24;17.10;99.90
7307;DHT22;3694;48.732;9.248;2022-10-23T09:51:55;17.10;99.90
7307;DHT22;3694;48.732;9.248;2022-10-23T09:54:23;17.20;99.90
7307;DHT22;3694;48.732;9.248;2022-10-23T09:56:49;17.30;99.90
7307;DHT22;3694;48.732;9.248;2022-10-23T09:59:24;17.50;99.90
7307;DHT22;3694;48.732;9.248;2022-10-23T10:01:57;17.50;99.90
7307;DHT22;3694;48.732;9.248;2022-10-23T10:04:37;17.60;99.90
7307;DHT22;3694;48.732;9.248;2022-10-23T10:07:12;17.70;99.90
7307;DHT22;3694;48.732;9.248;2022-10-23T10:09:39;17.80;99.90
7307;DHT22;3694;48.732;9.248;2022-10-23T10:12:36;18.00;99.90
7307;DHT22;3694;48.732;9.248;2022-10-23T10:23:06;18.40;99.90
7307;DHT22;3694;48.732;9.248;2022-10-23T10:31:22;18.70;99.90
7307;DHT22;3694;48.732;9.248;2022-10-23T10:34:05;18.90;99.90
7307;DHT22;3694;48.732;9.248;2022-10-23T10:36:52;19.10;99.90
7307;DHT22;3694;48.732;9.248;2022-10-23T10:39:29;19.30;99.90
7307;DHT22;3694;48.732;9.248;2022-10-23T10:42:17;19.50;99.50
7307;DHT22;3694;48.732;9.248;2022-10-23T10:44:47;19.50;98.70
7307;DHT22;3694;48.732;9.248;2022-10-23T10:47:22;19.60;98.90
7307;DHT22;3694;48.732;9.248;2022-10-23T10:49:53;19.70;98.30
7307;DHT22;3694;48.732;9.248;2022-10-23T10:57:37;19.90;98.30
7307;DHT22;3694;48.732;9.248;2022-10-23T11:00:12;19.90;98.10
7307;DHT22;3694;48.732;9.248;2022-10-23T11:02:46;20.00;98.30
7307;DHT22;3694;48.732;9.248;2022-10-23T11:08:04;20.20;98.60
7307;DHT22;3694;48.732;9.248;2022-10-23T11:10:31;20.30;97.90
7307;DHT22;3694;48.732;9.248;2022-10-23T11:12:58;20.70;98.30
7307;DHT22;3694;48.732;9.248;2022-10-23T11:15:43;20.70;98.20
7307;DHT22;3694;48.732;9.248;2022-10-23T11:18:16;20.80;98.20
7307;DHT22;3694;48.732;9.248;2022-10-23T11:23:27;20.80;97.90
7307;DHT22;3694;48.732;9.248;2022-10-23T11:26:26;20.90;98.20
7307;DHT22;3694;48.732;9.248;2022-10-23T11:29:02;20.80;98.50
7307;DHT22;3694;48.732;9.248;2022-10-23T11:34:46;20.70;97.80
7307;DHT22;3694;48.732;9.248;2022-10-23T11:37:20;20.80;97.50
7307;DHT22;3694;48.732;9.248;2022-10-23T11:40:00;20.60;97.60
7307;DHT22;3694;48.732;9.248;2022-10-23T11:42:33;20.40;97.80
7307;DHT22;3694;48.732;9.248;2022-10-23T11:45:33;20.20;97.70
7307;DHT22;3694;48.732;9.248;2022-10-23T11:51:03;20.20;97.90
7307;DHT22;3694;48.732;9.248;2022-10-23T11:56:00;20.30;98.10
7307;DHT22;3694;48.732;9.248;2022-10-23T11:58:38;20.40;97.80
7307;DHT22;3694;48.732;9.248;2022-10-23T12:01:19;20.60;97.70
7307;DHT22;3694;48.732;9.248;2022-10-23T12:03:51;20.70;97.70
7307;DHT22;3694;48.732;9.248;2022-10-23T12:06:28;20.80;97.60
7307;DHT22;3694;48.732;9.248;2022-10-23T12:08:59;20.90;98.00
7307;DHT22;3694;48.732;9.248;2022-10-23T12:11:47;21.10;97.80
7307;DHT22;3694;48.732;9.248;2022-10-23T12:17:00;20.90;97.60
7307;DHT22;3694;48.732;9.248;2022-10-23T12:19:29;20.90;97.50
7307;DHT22;3694;48.732;9.248;2022-10-23T12:22:09;21.10;97.00
7307;DHT22;3694;48.732;9.248;2022-10-23T12:27:23;21.40;97.20
7307;DHT22;3694;48.732;9.248;2022-10-23T12:32:48;21.40;96.90
7307;DHT22;3694;48.732;9.248;2022-10-23T12:38:23;21.60;96.70
7307;DHT22;3694;48.732;9.248;2022-10-23T12:40:51;21.60;96.60
7307;DHT22;3694;48.732;9.248;2022-10-23T12:43:26;21.60;96.90
7307;DHT22;3694;48.732;9.248;2022-10-23T12:45:54;21.80;96.20
7307;DHT22;3694;48.732;9.248;2022-10-23T12:48:22;21.80;96.70
7307;DHT22;3694;48.732;9.248;2022-10-23T12:50:49;21.70;96.40
7307;DHT22;3694;48.732;9.248;2022-10-23T12:53:17;21.90;96.50
7307;DHT22;3694;48.732;9.248;2022-10-23T12:56:04;22.10;96.50
7307;DHT22;3694;48.732;9.248;2022-10-23T12:58:32;22.10;96.60
7307;DHT22;3694;48.732;9.248;2022-10-23T13:01:00;22.20;96.10
7307;DHT22;3694;48.732;9.248;2022-10-23T13:03:27;22.40;95.70
7307;DHT22;3694;48.732;9.248;2022-10-23T13:05:55;22.20;95.70
7307;DHT22;3694;48.732;9.248;2022-10-23T13:08:28;22.10;95.80
7307;DHT22;3694;48.732;9.248;2022-10-23T13:10:56;22.10;95.70
7307;DHT22;3694;48.732;9.248;2022-10-23T13:13:22;22.00;95.50
7307;DHT22;3694;48.732;9.248;2022-10-23T13:15:48;22.10;96.30
7307;DHT22;3694;48.732;9.248;2022-10-23T13:18:15;22.00;96.40
7307;DHT22;3694;48.732;9.248;2022-10-23T13:23:34;21.60;95.70
7307;DHT22;3694;48.732;9.248;2022-10-23T13:26:33;21.50;96.20
7307;DHT22;3694;48.732;9.248;2022-10-23T13:29:00;21.50;96.00
7307;DHT22;3694;48.732;9.248;2022-10-23T13:31:32;21.40;96.10
7307;DHT22;3694;48.732;9.248;2022-10-23T13:36:24;21.10;95.90
7307;DHT22;3694;48.732;9.248;2022-10-23T13:41:23;20.70;96.70
7307;DHT22;3694;48.732;9.248;2022-10-23T13:43:49;20.60;97.50
7307;DHT22;3694;48.732;9.248;2022-10-23T13:46:17;20.60;97.30
7307;DHT22;3694;48.732;9.248;2022-10-23T13:48:43;20.80;96.50
7307;DHT22;3694;48.732;9.248;2022-10-23T13:51:12;20.80;97.40
7307;DHT22;3694;48.732;9.248;2022-10-23T13:53:38;20.90;97.80
7307;DHT22;3694;48.732;9.248;2022-10-23T13:56:04;21.00;97.30
7307;DHT22;3694;48.732;9.248;2022-10-23T13:58:29;20.90;98.30
7307;DHT22;3694;48.732;9.248;2022-10-23T14:00:55;20.80;98.60
7307;DHT22;3694;48.732;9.248;2022-10-23T14:03:21;20.70;98.30
7307;DHT22;3694;48.732;9.248;2022-10-23T14:05:51;20.60;98.60
7307;DHT22;3694;48.732;9.248;2022-10-23T14:08:17;20.60;98.40
7307;DHT22;3694;48.732;9.248;2022-10-23T14:10:43;20.50;98.90
7307;DHT22;3694;48.732;9.248;2022-10-23T14:13:08;20.40;99.70
7307;DHT22;3694;48.732;9.248;2022-10-23T14:15:34;20.30;99.90
7307;DHT22;3694;48.732;9.248;2022-10-23T14:17:59;20.10;99.90
7307;DHT22;3694;48.732;9.248;2022-10-23T14:20:25;20.00;99.40
7307;DHT22;3694;48.732;9.248;2022-10-23T14:22:51;19.80;99.60
7307;DHT22;3694;48.732;9.248;2022-10-23T14:25:16;19.60;99.60
7307;DHT22;3694;48.732;9.248;2022-10-23T14:27:43;19.50;99.90
7307;DHT22;3694;48.732;9.248;2022-10-23T14:30:09;19.40;99.70
7307;DHT22;3694;48.732;9.248;2022-10-23T14:32:35;19.20;99.60
7307;DHT22;3694;48.732;9.248;2022-10-23T14:35:00;19.10;99.70
7307;DHT22;3694;48.732;9.248;2022-10-23T14:37:32;19.10;99.90
7307;DHT22;3694;48.732;9.248;2022-10-23T14:39:59;19.10;99.80
7307;DHT22;3694;48.732;9.248;2022-10-23T14:42:25;19.10;99.80
7307;DHT22;3694;48.732;9.248;2022-10-23T14:44:51;19.10;99.60
7307;DHT22;3694;48.732;9.248;2022-10-23T14:47:17;19.00;99.80
7307;DHT22;3694;48.732;9.248;2022-10-23T14:49:48;19.00;99.70
7307;DHT22;3694;48.732;9.248;2022-10-23T14:52:16;19.10;99.90
7307;DHT22;3694;48.732;9.248;2022-10-23T14:54:42;18.80;99.90
7307;DHT22;3694;48.732;9.248;2022-10-23T14:57:07;18.90;99.90
7307;DHT22;3694;48.732;9.248;2022-10-23T14:59:33;18.70;99.90
7307;DHT22;3694;48.732;9.248;2022-10-23T15:01:59;18.60;99.90
7307;DHT22;3694;48.732;9.248;2022-10-23T15:04:24;18.50;99.90
7307;DHT22;3694;48.732;9.248;2022-10-23T15:06:50;18.50;99.90
7307;DHT22;3694;48.732;9.248;2022-10-23T15:09:16;18.50;99.90
7307;DHT22;3694;48.732;9.248;2022-10-23T15:11:44;18.50;99.90
7307;DHT22;3694;48.732;9.248;2022-10-23T15:14:10;18.60;99.90
7307;DHT22;3694;48.732;9.248;2022-10-23T15:16:35;18.70;99.90
7307;DHT22;3694;48.732;9.248;2022-10-23T15:19:06;18.70;99.90
7307;DHT22;3694;48.732;9.248;2022-10-23T15:21:32;18.80;99.90
7307;DHT22;3694;48.732;9.248;2022-10-23T15:23:59;18.80;99.90
7307;DHT22;3694;48.732;9.248;2022-10-23T15:26:25;18.80;99.90
7307;DHT22;3694;48.732;9.248;2022-10-23T15:28:56;18.70;99.90
7307;DHT22;3694;48.732;9.248;2022-10-23T15:33:57;18.70;99.90
7307;DHT22;3694;48.732;9.248;2022-10-23T15:36:22;18.60;99.90
7307;DHT22;3694;48.732;9.248;2022-10-23T15:38:48;18.60;99.90
7307;DHT22;3694;48.732;9.248;2022-10-23T15:41:16;18.40;99.90
7307;DHT22;3694;48.732;9.248;2022-10-23T15:43:42;18.40;99.90
7307;DHT22;3694;48.732;9.248;2022-10-23T15:46:07;18.30;99.90
7307;DHT22;3694;48.732;9.248;2022-10-23T15:48:33;18.30;99.90
7307;DHT22;3694;48.732;9.248;2022-10-23T15:50:58;18.30;99.90
7307;DHT22;3694;48.732;9.248;2022-10-23T15:53:24;18.20;99.90
7307;DHT22;3694;48.732;9.248;2022-10-23T15:55:50;18.20;99.90
7307;DHT22;3694;48.732;9.248;2022-10-23T15:58:15;18.00;99.90
7307;DHT22;3694;48.732;9.248;2022-10-23T16:00:41;17.80;99.90
7307;DHT22;3694;48.732;9.248;2022-10-23T16:03:06;17.80;99.90
7307;DHT22;3694;48.732;9.248;2022-10-23T16:05:32;17.60;99.90
7307;DHT22;3694;48.732;9.248;2022-10-23T16:07:58;17.40;99.90
7307;DHT22;3694;48.732;9.248;2022-10-23T16:10:23;17.30;99.90
7307;DHT22;3694;48.732;9.248;2022-10-23T16:12:49;17.20;99.90
7307;DHT22;3694;48.732;9.248;2022-10-23T16:15:15;17.20;99.90
7307;DHT22;3694;48.732;9.248;2022-10-23T16:17:40;17.20;99.90
7307;DHT22;3694;48.732;9.248;2022-10-23T16:20:06;17.20;99.90
7307;DHT22;3694;48.732;9.248;2022-10-23T16:22:32;17.10;99.90
7307;DHT22;3694;48.732;9.248;2022-10-23T16:24:57;17.00;99.90
7307;DHT22;3694;48.732;9.248;2022-10-23T16:27:23;16.90;99.90
7307;DHT22;3694;48.732;9.248;2022-10-23T16:29:49;16.80;99.90
7307;DHT22;3694;48.732;9.248;2022-10-23T16:32:14;16.70;99.90
7307;DHT22;3694;48.732;9.248;2022-10-23T16:34:40;16.50;99.90
7307;DHT22;3694;48.732;9.248;2022-10-23T16:37:05;16.60;99.90
7307;DHT22;3694;48.732;9.248;2022-10-23T16:39:31;16.40;99.90
7307;DHT22;3694;48.732;9.248;2022-10-23T16:41:56;16.50;99.90
7307;DHT22;3694;48.732;9.248;2022-10-23T16:44:22;16.60;99.90
7307;DHT22;3694;48.732;9.248;2022-10-23T16:46:48;16.60;99.90
7307;DHT22;3694;48.732;9.248;2022-10-23T16:49:14;16.50;99.90
7307;DHT22;3694;48.732;9.248;2022-10-23T16:51:39;16.50;99.90
7307;DHT22;3694;48.732;9.248;2022-10-23T16:54:05;16.70;99.90
7307;DHT22;3694;48.732;9.248;2022-10-23T16:56:30;16.60;99.90
7307;DHT22;3694;48.732;9.248;2022-10-23T16:58:57;16.60;99.90
7307;DHT22;3694;48.732;9.248;2022-10-23T17:01:26;16.60;99.90
7307;DHT22;3694;48.732;9.248;2022-10-23T17:03:53;16.70;99.90
7307;DHT22;3694;48.732;9.248;2022-10-23T17:06:21;16.60;99.90
7307;DHT22;3694;48.732;9.248;2022-10-23T17:08:48;16.70;99.90
7307;DHT22;3694;48.732;9.248;2022-10-23T17:11:28;16.70;99.90
7307;DHT22;3694;48.732;9.248;2022-10-23T17:14:00;16.80;99.90
7307;DHT22;3694;48.732;9.248;2022-10-23T17:16:30;17.00;99.90
7307;DHT22;3694;48.732;9.248;2022-10-23T17:18:58;17.10;99.90
7307;DHT22;3694;48.732;9.248;2022-10-23T17:21:24;17.10;99.90
7307;DHT22;3694;48.732;9.248;2022-10-23T17:23:51;17.10;99.90
7307;DHT22;3694;48.732;9.248;2022-10-23T17:26:18;17.10;99.90
7307;DHT22;3694;48.732;9.248;2022-10-23T17:28:44;17.00;99.90
7307;DHT22;3694;48.732;9.248;2022-10-23T17:31:18;17.00;99.90
7307;DHT22;3694;48.732;9.248;2022-10-23T17:33:45;16.80;99.90